Balmoral — GRPM — position and weather

sailwx.info

Track history (hours):
 
Tides and Currents Weather Stations Pressure Air Temp Water Temp Dewpoint Dewpoint Depression Visibility Wind Speed Wind Dir Waves Ship Positions

Balmoral

Operator: Waverly Excursions Ltd

Last reported at 2020-Sep-09 10:44 UTC. Time now 2020-Sep-18 06:50 UTC.
Position N 55°58' W 004°49'.
Warning: this ship's position is 8 days out of date.

Length 73 m; draft 1.8 m.

Type: Ship. MMSI: 232001540.

Date/timePositionNaut miles runAvg speedWind from/ knotsBaromVisibWave heightAir tempDewpointWater temp
2020-Sep-09 10:44N 55°58' W 004°49'12 9.4
2020-Sep-09 09:30N 55°48' W 004°58'2 4.7
2020-Sep-09 09:00N 55°45' W 004°59'2 2.2
2020-Sep-09 08:00N 55°48' W 004°58'  
2020-Sep-03 15:46N 55°35' W 005°08'24 1.1
2020-Sep-02 17:30N 55°57' W 004°53'9 1.2
2020-Sep-02 09:56N 55°48' W 004°52'0 0.0
2020-Sep-02 09:14N 55°48' W 004°52'0 0.0
2020-Sep-02 02:56N 55°48' W 004°52'0 0.0
2020-Sep-02 00:56N 55°48' W 004°52'0 0.0
2020-Sep-02 00:02N 55°48' W 004°52'0 0.0
2020-Sep-01 23:08N 55°48' W 004°52'0 0.0
2020-Sep-01 20:44N 55°48' W 004°52'0 0.0
2020-Sep-01 17:24N 55°48' W 004°52'9 4.9
2020-Sep-01 15:30N 55°57' W 004°55'7 4.5
2020-Sep-01 13:54N 56°04' W 004°53'16 3.8
2020-Sep-01 09:38N 55°48' W 004°52'0 0.0
2020-Sep-01 05:47N 55°48' W 004°52'0 0.0
2020-Sep-01 04:56N 55°48' W 004°52'0 0.0
2020-Aug-31 20:50N 55°48' W 004°52'0 0.0
2020-Aug-31 18:29N 55°48' W 004°52'5 2.3
2020-Aug-31 16:31N 55°44' W 004°57'713.5
2020-Aug-31 16:01N 55°44' W 005°09'2 1.3
2020-Aug-31 14:28N 55°43' W 005°12'714.0
2020-Aug-31 14:00N 55°37' W 005°07'14 0.7
2020-Aug-30 16:49N 55°48' W 004°52'  
Track history (hours):
 
Tides and Currents Weather Stations Pressure Air Temp Water Temp Dewpoint Dewpoint Depression Visibility Wind Speed Wind Dir Waves Ship Positions

Balmoral

Operator: Waverly Excursions Ltd

Last reported at 2020-Sep-09 10:44 UTC. Time now 2020-Sep-18 06:50 UTC.
Position N 55°58' W 004°49'.
Warning: this ship's position is 8 days out of date.

Length 73 m; draft 1.8 m.

Type: Ship. MMSI: 232001540.

Date/timePositionNaut miles runAvg speedWind from/ knotsBaromVisibWave heightAir tempDewpointWater temp
2020-Sep-09 10:44N 55°58' W 004°49'12 9.4
2020-Sep-09 09:30N 55°48' W 004°58'2 4.7
2020-Sep-09 09:00N 55°45' W 004°59'2 2.2
2020-Sep-09 08:00N 55°48' W 004°58'  
2020-Sep-03 15:46N 55°35' W 005°08'24 1.1
2020-Sep-02 17:30N 55°57' W 004°53'9 1.2
2020-Sep-02 09:56N 55°48' W 004°52'0 0.0
2020-Sep-02 09:14N 55°48' W 004°52'0 0.0
2020-Sep-02 02:56N 55°48' W 004°52'0 0.0
2020-Sep-02 00:56N 55°48' W 004°52'0 0.0
2020-Sep-02 00:02N 55°48' W 004°52'0 0.0
2020-Sep-01 23:08N 55°48' W 004°52'0 0.0
2020-Sep-01 20:44N 55°48' W 004°52'0 0.0
2020-Sep-01 17:24N 55°48' W 004°52'9 4.9
2020-Sep-01 15:30N 55°57' W 004°55'7 4.5
2020-Sep-01 13:54N 56°04' W 004°53'16 3.8
2020-Sep-01 09:38N 55°48' W 004°52'0 0.0
2020-Sep-01 05:47N 55°48' W 004°52'0 0.0
2020-Sep-01 04:56N 55°48' W 004°52'0 0.0
2020-Aug-31 20:50N 55°48' W 004°52'0 0.0
2020-Aug-31 18:29N 55°48' W 004°52'5 2.3
2020-Aug-31 16:31N 55°44' W 004°57'713.5
2020-Aug-31 16:01N 55°44' W 005°09'2 1.3
2020-Aug-31 14:28N 55°43' W 005°12'714.0
2020-Aug-31 14:00N 55°37' W 005°07'14 0.7
2020-Aug-30 16:49N 55°48' W 004°52'  

Dump ship's entire track history